KPHD/PHD METAR and TAF weather

Enter ICAO airport designator
Station Type Date Time Source
KPHD METAR 2019/10/23 01:53 UTC NOAA

KPHD 230153Z AUTO 00000KT 10SM BKN075 10/06 A2988 RMK AO2 SLP118 T01000056


Station Type Date Time Source
KPHD Decoded METAR 2019/10/23 01:53 UTC NOAA

NEW PHILADELPHIA CLEVER FLD, OH, United States (KPHD) 40-28N 81-25W 272M
Oct 22, 2019 - 09:53 PM EDT / 2019.10.23 0153 UTC
Wind: Calm:0
Visibility: 10 mile(s):0
Sky conditions: mostly cloudy
Temperature: 50.0 F (10.0 C)
Dew Point: 42.1 F (5.6 C)
Relative Humidity: 74%
Pressure (altimeter): 29.88 in. Hg (1011 hPa)
ob: KPHD 230153Z AUTO 00000KT 10SM BKN075 10/06 A2988 RMK AO2 SLP118 T01000056
cycle: 2

Station Type Date Time Source
KPHD TAF UTC NOAA

Error!

Example: see airport list